sensor_id;sensor_type;location;lat;lon;timestamp;temperature;humidity
5344;DHT22;2694;48.950;8.970;2022-09-09T00:03:21;15.70;99.90
5344;DHT22;2694;48.950;8.970;2022-09-09T00:05:55;15.50;99.90
5344;DHT22;2694;48.950;8.970;2022-09-09T00:08:40;15.20;99.90
5344;DHT22;2694;48.950;8.970;2022-09-09T00:11:13;15.10;99.90
5344;DHT22;2694;48.950;8.970;2022-09-09T00:13:46;15.20;99.90
5344;DHT22;2694;48.950;8.970;2022-09-09T00:16:18;15.00;99.90
5344;DHT22;2694;48.950;8.970;2022-09-09T00:18:53;15.10;99.90
5344;DHT22;2694;48.950;8.970;2022-09-09T00:23:54;15.30;99.90
5344;DHT22;2694;48.950;8.970;2022-09-09T00:29:00;15.50;99.90
5344;DHT22;2694;48.950;8.970;2022-09-09T00:34:03;15.70;99.90
5344;DHT22;2694;48.950;8.970;2022-09-09T00:36:36;15.70;99.90
5344;DHT22;2694;48.950;8.970;2022-09-09T00:39:04;15.70;99.90
5344;DHT22;2694;48.950;8.970;2022-09-09T00:41:44;15.70;99.90
5344;DHT22;2694;48.950;8.970;2022-09-09T00:46:59;15.80;99.90
5344;DHT22;2694;48.950;8.970;2022-09-09T00:49:39;15.70;99.90
5344;DHT22;2694;48.950;8.970;2022-09-09T00:54:52;15.70;99.90
5344;DHT22;2694;48.950;8.970;2022-09-09T00:57:26;15.70;99.90
5344;DHT22;2694;48.950;8.970;2022-09-09T01:02:46;15.70;99.90
5344;DHT22;2694;48.950;8.970;2022-09-09T01:05:20;15.80;99.90
5344;DHT22;2694;48.950;8.970;2022-09-09T01:07:49;15.70;99.90
5344;DHT22;2694;48.950;8.970;2022-09-09T01:10:23;15.70;99.90
5344;DHT22;2694;48.950;8.970;2022-09-09T01:17:55;15.70;99.90
5344;DHT22;2694;48.950;8.970;2022-09-09T01:20:29;15.70;99.90
5344;DHT22;2694;48.950;8.970;2022-09-09T01:26:15;15.70;99.90
5344;DHT22;2694;48.950;8.970;2022-09-09T01:28:45;15.70;99.90
5344;DHT22;2694;48.950;8.970;2022-09-09T01:31:17;15.70;99.90
5344;DHT22;2694;48.950;8.970;2022-09-09T01:33:44;15.80;99.90
5344;DHT22;2694;48.950;8.970;2022-09-09T01:36:15;15.80;99.90
5344;DHT22;2694;48.950;8.970;2022-09-09T01:38:44;15.70;99.90
5344;DHT22;2694;48.950;8.970;2022-09-09T01:43:39;15.50;99.90
5344;DHT22;2694;48.950;8.970;2022-09-09T01:48:33;15.50;99.90
5344;DHT22;2694;48.950;8.970;2022-09-09T01:51:00;15.50;99.90
5344;DHT22;2694;48.950;8.970;2022-09-09T01:53:27;15.60;99.90
5344;DHT22;2694;48.950;8.970;2022-09-09T01:56:04;15.60;99.90
5344;DHT22;2694;48.950;8.970;2022-09-09T01:58:36;15.60;99.90
5344;DHT22;2694;48.950;8.970;2022-09-09T02:01:15;15.60;99.90
5344;DHT22;2694;48.950;8.970;2022-09-09T02:03:47;15.60;99.90
5344;DHT22;2694;48.950;8.970;2022-09-09T02:08:49;15.60;99.90
5344;DHT22;2694;48.950;8.970;2022-09-09T02:11:18;15.60;99.90
5344;DHT22;2694;48.950;8.970;2022-09-09T02:13:47;15.60;99.90
5344;DHT22;2694;48.950;8.970;2022-09-09T02:16:21;15.60;99.90
5344;DHT22;2694;48.950;8.970;2022-09-09T02:21:18;15.80;99.90
5344;DHT22;2694;48.950;8.970;2022-09-09T02:23:47;15.80;99.90
5344;DHT22;2694;48.950;8.970;2022-09-09T02:26:19;15.80;99.90
5344;DHT22;2694;48.950;8.970;2022-09-09T02:28:49;15.70;99.90
5344;DHT22;2694;48.950;8.970;2022-09-09T02:31:20;15.60;99.90
5344;DHT22;2694;48.950;8.970;2022-09-09T02:36:19;15.50;99.90
5344;DHT22;2694;48.950;8.970;2022-09-09T02:38:48;15.50;99.90
5344;DHT22;2694;48.950;8.970;2022-09-09T02:41:19;15.30;99.90
5344;DHT22;2694;48.950;8.970;2022-09-09T02:43:47;15.30;99.90
5344;DHT22;2694;48.950;8.970;2022-09-09T02:46:27;15.30;99.90
5344;DHT22;2694;48.950;8.970;2022-09-09T02:49:00;15.40;99.90
5344;DHT22;2694;48.950;8.970;2022-09-09T02:56:32;15.50;99.90
5344;DHT22;2694;48.950;8.970;2022-09-09T02:59:03;15.40;99.90
5344;DHT22;2694;48.950;8.970;2022-09-09T03:03:58;15.60;99.90
5344;DHT22;2694;48.950;8.970;2022-09-09T03:06:25;15.60;99.90
5344;DHT22;2694;48.950;8.970;2022-09-09T03:08:53;15.50;99.90
5344;DHT22;2694;48.950;8.970;2022-09-09T03:11:20;15.40;99.90
5344;DHT22;2694;48.950;8.970;2022-09-09T03:13:47;15.40;99.90
5344;DHT22;2694;48.950;8.970;2022-09-09T03:18:42;15.40;99.90
5344;DHT22;2694;48.950;8.970;2022-09-09T03:21:11;15.40;99.90
5344;DHT22;2694;48.950;8.970;2022-09-09T03:23:38;15.30;99.90
5344;DHT22;2694;48.950;8.970;2022-09-09T03:26:04;15.30;99.90
5344;DHT22;2694;48.950;8.970;2022-09-09T03:28:31;15.20;99.90
5344;DHT22;2694;48.950;8.970;2022-09-09T03:30:59;15.10;99.90
5344;DHT22;2694;48.950;8.970;2022-09-09T03:33:26;15.10;99.90
5344;DHT22;2694;48.950;8.970;2022-09-09T03:38:22;14.90;99.90
5344;DHT22;2694;48.950;8.970;2022-09-09T03:40:50;14.90;99.90
5344;DHT22;2694;48.950;8.970;2022-09-09T03:43:17;14.90;99.90
5344;DHT22;2694;48.950;8.970;2022-09-09T03:45:45;14.90;99.90
5344;DHT22;2694;48.950;8.970;2022-09-09T03:48:13;15.00;99.90
5344;DHT22;2694;48.950;8.970;2022-09-09T03:50:44;14.90;99.90
5344;DHT22;2694;48.950;8.970;2022-09-09T03:53:12;14.90;99.90
5344;DHT22;2694;48.950;8.970;2022-09-09T03:55:39;14.90;99.90
5344;DHT22;2694;48.950;8.970;2022-09-09T03:58:07;14.90;99.90
5344;DHT22;2694;48.950;8.970;2022-09-09T04:00:34;14.90;99.90
5344;DHT22;2694;48.950;8.970;2022-09-09T04:03:00;15.00;99.90
5344;DHT22;2694;48.950;8.970;2022-09-09T04:15:18;15.00;99.90
5344;DHT22;2694;48.950;8.970;2022-09-09T04:17:45;14.90;99.90
5344;DHT22;2694;48.950;8.970;2022-09-09T04:20:11;15.00;99.90
5344;DHT22;2694;48.950;8.970;2022-09-09T04:22:38;15.10;99.90
5344;DHT22;2694;48.950;8.970;2022-09-09T04:25:06;15.20;99.90
5344;DHT22;2694;48.950;8.970;2022-09-09T04:27:34;15.20;99.90
5344;DHT22;2694;48.950;8.970;2022-09-09T04:30:00;15.20;99.90
5344;DHT22;2694;48.950;8.970;2022-09-09T04:32:27;15.30;99.90
5344;DHT22;2694;48.950;8.970;2022-09-09T04:34:54;15.30;99.90
5344;DHT22;2694;48.950;8.970;2022-09-09T04:37:21;15.20;99.90
5344;DHT22;2694;48.950;8.970;2022-09-09T04:39:48;15.20;99.90
5344;DHT22;2694;48.950;8.970;2022-09-09T04:42:14;15.30;99.90
5344;DHT22;2694;48.950;8.970;2022-09-09T04:44:43;15.30;99.90
5344;DHT22;2694;48.950;8.970;2022-09-09T04:47:10;15.40;99.90
5344;DHT22;2694;48.950;8.970;2022-09-09T04:52:04;15.40;99.90
5344;DHT22;2694;48.950;8.970;2022-09-09T04:54:31;15.50;99.90
5344;DHT22;2694;48.950;8.970;2022-09-09T04:56:58;15.50;99.90
5344;DHT22;2694;48.950;8.970;2022-09-09T04:59:25;15.50;99.90
5344;DHT22;2694;48.950;8.970;2022-09-09T05:01:53;15.50;99.90
5344;DHT22;2694;48.950;8.970;2022-09-09T05:04:20;15.50;99.90
5344;DHT22;2694;48.950;8.970;2022-09-09T05:06:47;15.50;99.90
5344;DHT22;2694;48.950;8.970;2022-09-09T05:11:41;15.40;99.90
5344;DHT22;2694;48.950;8.970;2022-09-09T05:14:08;15.30;99.90
5344;DHT22;2694;48.950;8.970;2022-09-09T05:16:36;15.50;99.90
5344;DHT22;2694;48.950;8.970;2022-09-09T05:21:33;15.40;99.90
5344;DHT22;2694;48.950;8.970;2022-09-09T05:24:00;15.30;99.90
5344;DHT22;2694;48.950;8.970;2022-09-09T05:26:27;15.30;99.90
5344;DHT22;2694;48.950;8.970;2022-09-09T05:33:53;15.60;99.90
5344;DHT22;2694;48.950;8.970;2022-09-09T05:36:22;15.80;99.90
5344;DHT22;2694;48.950;8.970;2022-09-09T05:38:50;15.80;99.90
5344;DHT22;2694;48.950;8.970;2022-09-09T05:46:17;16.10;99.90
5344;DHT22;2694;48.950;8.970;2022-09-09T05:48:45;16.20;99.90
5344;DHT22;2694;48.950;8.970;2022-09-09T05:51:14;16.20;99.90
5344;DHT22;2694;48.950;8.970;2022-09-09T05:53:44;16.30;99.90
5344;DHT22;2694;48.950;8.970;2022-09-09T05:56:16;16.30;99.90
5344;DHT22;2694;48.950;8.970;2022-09-09T05:58:44;16.40;99.90
5344;DHT22;2694;48.950;8.970;2022-09-09T06:01:14;16.50;99.90
5344;DHT22;2694;48.950;8.970;2022-09-09T06:03:43;16.40;99.90
5344;DHT22;2694;48.950;8.970;2022-09-09T06:06:11;16.30;99.90
5344;DHT22;2694;48.950;8.970;2022-09-09T06:08:39;16.40;99.90
5344;DHT22;2694;48.950;8.970;2022-09-09T06:11:12;16.40;99.90
5344;DHT22;2694;48.950;8.970;2022-09-09T06:13:39;16.40;99.90
5344;DHT22;2694;48.950;8.970;2022-09-09T06:16:08;16.40;99.90
5344;DHT22;2694;48.950;8.970;2022-09-09T06:18:36;16.40;99.90
5344;DHT22;2694;48.950;8.970;2022-09-09T06:21:05;16.50;99.90
5344;DHT22;2694;48.950;8.970;2022-09-09T06:23:33;16.50;99.90
5344;DHT22;2694;48.950;8.970;2022-09-09T06:26:04;16.50;99.90
5344;DHT22;2694;48.950;8.970;2022-09-09T06:28:33;16.40;99.90
5344;DHT22;2694;48.950;8.970;2022-09-09T06:31:01;16.40;99.90
5344;DHT22;2694;48.950;8.970;2022-09-09T06:33:31;16.30;99.90
5344;DHT22;2694;48.950;8.970;2022-09-09T06:38:27;16.40;99.90
5344;DHT22;2694;48.950;8.970;2022-09-09T06:45:56;16.60;99.90
5344;DHT22;2694;48.950;8.970;2022-09-09T06:48:23;16.80;99.90
5344;DHT22;2694;48.950;8.970;2022-09-09T06:50:51;17.10;99.90
5344;DHT22;2694;48.950;8.970;2022-09-09T06:53:19;17.20;99.90
5344;DHT22;2694;48.950;8.970;2022-09-09T06:55:46;17.30;99.90
5344;DHT22;2694;48.950;8.970;2022-09-09T06:58:13;17.30;99.90
5344;DHT22;2694;48.950;8.970;2022-09-09T07:00:40;17.40;99.90
5344;DHT22;2694;48.950;8.970;2022-09-09T07:08:03;17.30;99.90
5344;DHT22;2694;48.950;8.970;2022-09-09T07:12:59;17.60;99.90
5344;DHT22;2694;48.950;8.970;2022-09-09T07:15:27;17.90;99.90
5344;DHT22;2694;48.950;8.970;2022-09-09T07:17:53;18.00;99.90
5344;DHT22;2694;48.950;8.970;2022-09-09T07:20:21;18.20;99.90
5344;DHT22;2694;48.950;8.970;2022-09-09T07:22:48;18.80;99.90
5344;DHT22;2694;48.950;8.970;2022-09-09T07:25:15;19.60;99.90
5344;DHT22;2694;48.950;8.970;2022-09-09T07:27:43;19.40;99.90
5344;DHT22;2694;48.950;8.970;2022-09-09T07:30:11;19.30;99.90
5344;DHT22;2694;48.950;8.970;2022-09-09T07:32:38;19.10;99.90
5344;DHT22;2694;48.950;8.970;2022-09-09T07:35:06;19.20;99.90
5344;DHT22;2694;48.950;8.970;2022-09-09T07:40:03;19.20;99.90
5344;DHT22;2694;48.950;8.970;2022-09-09T07:42:31;19.30;99.90
5344;DHT22;2694;48.950;8.970;2022-09-09T07:44:57;19.20;99.90
5344;DHT22;2694;48.950;8.970;2022-09-09T07:47:24;19.00;99.90
5344;DHT22;2694;48.950;8.970;2022-09-09T07:49:51;19.00;99.90
5344;DHT22;2694;48.950;8.970;2022-09-09T07:52:18;18.90;99.90
5344;DHT22;2694;48.950;8.970;2022-09-09T07:54:46;18.90;99.90
5344;DHT22;2694;48.950;8.970;2022-09-09T07:57:13;19.00;99.90
5344;DHT22;2694;48.950;8.970;2022-09-09T07:59:40;19.10;99.90
5344;DHT22;2694;48.950;8.970;2022-09-09T08:02:09;19.40;99.90
5344;DHT22;2694;48.950;8.970;2022-09-09T08:04:36;19.80;99.90
5344;DHT22;2694;48.950;8.970;2022-09-09T08:07:03;20.30;99.90
5344;DHT22;2694;48.950;8.970;2022-09-09T08:12:00;21.50;99.90
5344;DHT22;2694;48.950;8.970;2022-09-09T08:14:27;22.10;99.90
5344;DHT22;2694;48.950;8.970;2022-09-09T08:19:22;22.50;99.90
5344;DHT22;2694;48.950;8.970;2022-09-09T08:21:49;22.40;99.90
5344;DHT22;2694;48.950;8.970;2022-09-09T08:29:15;22.70;99.50
5344;DHT22;2694;48.950;8.970;2022-09-09T08:31:44;22.50;99.90
5344;DHT22;2694;48.950;8.970;2022-09-09T08:34:11;23.10;99.30
5344;DHT22;2694;48.950;8.970;2022-09-09T08:36:39;23.20;98.90
5344;DHT22;2694;48.950;8.970;2022-09-09T08:39:09;23.30;98.90
5344;DHT22;2694;48.950;8.970;2022-09-09T08:42:01;22.80;98.70
5344;DHT22;2694;48.950;8.970;2022-09-09T08:44:46;22.70;99.00
5344;DHT22;2694;48.950;8.970;2022-09-09T08:47:20;23.40;98.60
5344;DHT22;2694;48.950;8.970;2022-09-09T08:50:00;23.60;97.90
5344;DHT22;2694;48.950;8.970;2022-09-09T08:52:31;23.50;97.40
5344;DHT22;2694;48.950;8.970;2022-09-09T08:55:11;24.20;97.70
5344;DHT22;2694;48.950;8.970;2022-09-09T08:57:42;24.50;96.60
5344;DHT22;2694;48.950;8.970;2022-09-09T09:02:48;25.00;95.60
5344;DHT22;2694;48.950;8.970;2022-09-09T09:05:28;24.40;95.60
5344;DHT22;2694;48.950;8.970;2022-09-09T09:08:03;24.00;96.10
5344;DHT22;2694;48.950;8.970;2022-09-09T09:10:45;23.40;95.60
5344;DHT22;2694;48.950;8.970;2022-09-09T09:13:17;22.60;96.40
5344;DHT22;2694;48.950;8.970;2022-09-09T09:15:50;22.70;96.20
5344;DHT22;2694;48.950;8.970;2022-09-09T09:18:19;22.30;96.00
5344;DHT22;2694;48.950;8.970;2022-09-09T09:20:55;22.30;96.30
5344;DHT22;2694;48.950;8.970;2022-09-09T09:25:56;22.10;96.70
5344;DHT22;2694;48.950;8.970;2022-09-09T09:28:26;22.60;96.90
5344;DHT22;2694;48.950;8.970;2022-09-09T09:30:58;23.30;96.80
5344;DHT22;2694;48.950;8.970;2022-09-09T09:33:29;23.40;96.90
5344;DHT22;2694;48.950;8.970;2022-09-09T09:35:58;23.10;97.40
5344;DHT22;2694;48.950;8.970;2022-09-09T09:40:54;22.10;97.60
5344;DHT22;2694;48.950;8.970;2022-09-09T09:45:52;21.50;99.10
5344;DHT22;2694;48.950;8.970;2022-09-09T09:48:20;21.30;99.90
5344;DHT22;2694;48.950;8.970;2022-09-09T09:50:50;21.10;99.90
5344;DHT22;2694;48.950;8.970;2022-09-09T09:53:21;20.90;99.90
5344;DHT22;2694;48.950;8.970;2022-09-09T09:55:54;20.40;99.90
5344;DHT22;2694;48.950;8.970;2022-09-09T09:58:21;20.00;99.90
5344;DHT22;2694;48.950;8.970;2022-09-09T10:00:49;19.60;99.90
5344;DHT22;2694;48.950;8.970;2022-09-09T10:03:22;19.00;99.90
5344;DHT22;2694;48.950;8.970;2022-09-09T10:08:19;17.80;99.90
5344;DHT22;2694;48.950;8.970;2022-09-09T10:13:27;17.50;99.90
5344;DHT22;2694;48.950;8.970;2022-09-09T10:16:06;18.20;99.90
5344;DHT22;2694;48.950;8.970;2022-09-09T10:21:26;20.80;99.90
5344;DHT22;2694;48.950;8.970;2022-09-09T10:24:20;21.50;99.90
5344;DHT22;2694;48.950;8.970;2022-09-09T10:26:53;21.80;99.90
5344;DHT22;2694;48.950;8.970;2022-09-09T10:29:40;22.50;99.90
5344;DHT22;2694;48.950;8.970;2022-09-09T10:35:09;23.80;99.90
5344;DHT22;2694;48.950;8.970;2022-09-09T10:37:45;24.20;99.90
5344;DHT22;2694;48.950;8.970;2022-09-09T10:40:26;23.80;99.20
5344;DHT22;2694;48.950;8.970;2022-09-09T10:43:00;24.00;99.90
5344;DHT22;2694;48.950;8.970;2022-09-09T10:45:38;23.30;98.70
5344;DHT22;2694;48.950;8.970;2022-09-09T10:48:18;22.20;98.40
5344;DHT22;2694;48.950;8.970;2022-09-09T10:50:55;21.60;99.90
5344;DHT22;2694;48.950;8.970;2022-09-09T10:53:35;21.20;99.90
5344;DHT22;2694;48.950;8.970;2022-09-09T10:56:06;21.10;99.90
5344;DHT22;2694;48.950;8.970;2022-09-09T11:01:12;20.40;99.90
5344;DHT22;2694;48.950;8.970;2022-09-09T11:03:42;20.10;99.90
5344;DHT22;2694;48.950;8.970;2022-09-09T11:06:14;20.10;99.90
5344;DHT22;2694;48.950;8.970;2022-09-09T11:08:42;20.10;99.90
5344;DHT22;2694;48.950;8.970;2022-09-09T11:11:12;19.90;99.90
5344;DHT22;2694;48.950;8.970;2022-09-09T11:13:45;19.50;99.90
5344;DHT22;2694;48.950;8.970;2022-09-09T11:16:20;19.40;99.90
5344;DHT22;2694;48.950;8.970;2022-09-09T11:18:49;19.20;99.90
5344;DHT22;2694;48.950;8.970;2022-09-09T11:21:22;18.60;99.90
5344;DHT22;2694;48.950;8.970;2022-09-09T11:23:54;18.30;99.90
5344;DHT22;2694;48.950;8.970;2022-09-09T11:26:29;18.10;99.90
5344;DHT22;2694;48.950;8.970;2022-09-09T11:29:19;18.00;99.90
5344;DHT22;2694;48.950;8.970;2022-09-09T11:32:00;18.00;99.90
5344;DHT22;2694;48.950;8.970;2022-09-09T11:34:39;17.80;99.90
5344;DHT22;2694;48.950;8.970;2022-09-09T11:42:36;17.40;99.90
5344;DHT22;2694;48.950;8.970;2022-09-09T11:45:24;17.50;99.90
5344;DHT22;2694;48.950;8.970;2022-09-09T11:47:54;17.50;99.90
5344;DHT22;2694;48.950;8.970;2022-09-09T11:50:30;17.70;99.90
5344;DHT22;2694;48.950;8.970;2022-09-09T11:53:25;17.90;99.90
5344;DHT22;2694;48.950;8.970;2022-09-09T11:56:29;18.20;99.90
5344;DHT22;2694;48.950;8.970;2022-09-09T12:01:34;18.90;99.90
5344;DHT22;2694;48.950;8.970;2022-09-09T12:04:26;19.70;99.90
5344;DHT22;2694;48.950;8.970;2022-09-09T12:12:28;21.40;99.90
5344;DHT22;2694;48.950;8.970;2022-09-09T12:15:02;21.60;99.90
5344;DHT22;2694;48.950;8.970;2022-09-09T12:17:30;21.40;99.90
5344;DHT22;2694;48.950;8.970;2022-09-09T12:20:12;21.70;99.90
5344;DHT22;2694;48.950;8.970;2022-09-09T12:22:50;22.10;99.90
5344;DHT22;2694;48.950;8.970;2022-09-09T12:25:29;22.90;99.90
5344;DHT22;2694;48.950;8.970;2022-09-09T12:28:05;23.50;99.90
5344;DHT22;2694;48.950;8.970;2022-09-09T12:30:39;23.80;99.90
5344;DHT22;2694;48.950;8.970;2022-09-09T12:38:06;22.70;99.90
5344;DHT22;2694;48.950;8.970;2022-09-09T12:40:39;22.60;99.90
5344;DHT22;2694;48.950;8.970;2022-09-09T12:43:17;23.10;99.60
5344;DHT22;2694;48.950;8.970;2022-09-09T12:45:45;22.90;97.50
5344;DHT22;2694;48.950;8.970;2022-09-09T12:48:12;22.60;99.50
5344;DHT22;2694;48.950;8.970;2022-09-09T12:50:45;22.60;99.90
5344;DHT22;2694;48.950;8.970;2022-09-09T12:53:18;22.60;99.90
5344;DHT22;2694;48.950;8.970;2022-09-09T12:55:51;23.10;99.90
5344;DHT22;2694;48.950;8.970;2022-09-09T12:58:19;23.00;96.90
5344;DHT22;2694;48.950;8.970;2022-09-09T13:00:49;22.80;97.30
5344;DHT22;2694;48.950;8.970;2022-09-09T13:03:19;23.30;99.60
5344;DHT22;2694;48.950;8.970;2022-09-09T13:05:47;23.60;97.20
5344;DHT22;2694;48.950;8.970;2022-09-09T13:08:15;23.80;96.70
5344;DHT22;2694;48.950;8.970;2022-09-09T13:10:48;23.50;95.20
5344;DHT22;2694;48.950;8.970;2022-09-09T13:13:23;23.40;95.90
5344;DHT22;2694;48.950;8.970;2022-09-09T13:15:52;23.00;95.40
5344;DHT22;2694;48.950;8.970;2022-09-09T13:20:49;23.10;94.20
5344;DHT22;2694;48.950;8.970;2022-09-09T13:23:18;22.80;93.90
5344;DHT22;2694;48.950;8.970;2022-09-09T13:25:54;22.70;95.00
5344;DHT22;2694;48.950;8.970;2022-09-09T13:28:25;22.80;94.60
5344;DHT22;2694;48.950;8.970;2022-09-09T13:30:59;22.80;94.90
5344;DHT22;2694;48.950;8.970;2022-09-09T13:33:33;23.50;94.30
5344;DHT22;2694;48.950;8.970;2022-09-09T13:36:03;23.50;93.10
5344;DHT22;2694;48.950;8.970;2022-09-09T13:38:33;23.30;94.30
5344;DHT22;2694;48.950;8.970;2022-09-09T13:43:35;23.40;94.10
5344;DHT22;2694;48.950;8.970;2022-09-09T13:46:04;23.30;94.30
5344;DHT22;2694;48.950;8.970;2022-09-09T13:48:31;23.40;94.00
5344;DHT22;2694;48.950;8.970;2022-09-09T13:51:03;23.30;94.50
5344;DHT22;2694;48.950;8.970;2022-09-09T13:53:30;23.40;94.90
5344;DHT22;2694;48.950;8.970;2022-09-09T13:55:58;22.70;94.00
5344;DHT22;2694;48.950;8.970;2022-09-09T13:58:25;22.20;95.30
5344;DHT22;2694;48.950;8.970;2022-09-09T14:00:53;22.20;95.90
5344;DHT22;2694;48.950;8.970;2022-09-09T14:05:48;21.90;95.30
5344;DHT22;2694;48.950;8.970;2022-09-09T14:08:23;21.90;95.60
5344;DHT22;2694;48.950;8.970;2022-09-09T14:15:48;22.10;95.60
5344;DHT22;2694;48.950;8.970;2022-09-09T14:18:16;22.20;95.70
5344;DHT22;2694;48.950;8.970;2022-09-09T14:20:43;22.10;94.90
5344;DHT22;2694;48.950;8.970;2022-09-09T14:23:11;22.10;94.40
5344;DHT22;2694;48.950;8.970;2022-09-09T14:25:40;22.00;95.60
5344;DHT22;2694;48.950;8.970;2022-09-09T14:28:09;21.90;95.80
5344;DHT22;2694;48.950;8.970;2022-09-09T14:30:37;21.90;96.10
5344;DHT22;2694;48.950;8.970;2022-09-09T14:35:33;21.90;96.50
5344;DHT22;2694;48.950;8.970;2022-09-09T14:38:00;21.90;96.40
5344;DHT22;2694;48.950;8.970;2022-09-09T14:40:27;21.90;96.20
5344;DHT22;2694;48.950;8.970;2022-09-09T14:42:54;21.90;95.20
5344;DHT22;2694;48.950;8.970;2022-09-09T14:45:22;21.80;95.20
5344;DHT22;2694;48.950;8.970;2022-09-09T14:55:13;21.50;93.90
5344;DHT22;2694;48.950;8.970;2022-09-09T15:00:09;21.40;93.40
5344;DHT22;2694;48.950;8.970;2022-09-09T15:02:36;21.40;93.60
5344;DHT22;2694;48.950;8.970;2022-09-09T15:05:04;21.40;93.60
5344;DHT22;2694;48.950;8.970;2022-09-09T15:12:27;21.30;94.10
5344;DHT22;2694;48.950;8.970;2022-09-09T15:14:54;21.40;93.60
5344;DHT22;2694;48.950;8.970;2022-09-09T15:17:21;21.40;93.70
5344;DHT22;2694;48.950;8.970;2022-09-09T15:19:53;21.30;93.70
5344;DHT22;2694;48.950;8.970;2022-09-09T15:24:47;21.20;94.20
5344;DHT22;2694;48.950;8.970;2022-09-09T15:39:33;21.20;94.90
5344;DHT22;2694;48.950;8.970;2022-09-09T15:41:59;21.10;95.40
5344;DHT22;2694;48.950;8.970;2022-09-09T15:44:28;21.00;95.60
5344;DHT22;2694;48.950;8.970;2022-09-09T15:51:52;20.70;96.50
5344;DHT22;2694;48.950;8.970;2022-09-09T15:54:21;20.60;97.40
5344;DHT22;2694;48.950;8.970;2022-09-09T15:56:51;20.20;99.90
5344;DHT22;2694;48.950;8.970;2022-09-09T15:59:20;19.40;99.90
5344;DHT22;2694;48.950;8.970;2022-09-09T16:01:48;18.60;99.90
5344;DHT22;2694;48.950;8.970;2022-09-09T16:04:17;18.40;99.90
5344;DHT22;2694;48.950;8.970;2022-09-09T16:06:49;18.10;99.90
5344;DHT22;2694;48.950;8.970;2022-09-09T16:09:17;18.00;99.90
5344;DHT22;2694;48.950;8.970;2022-09-09T16:11:44;17.90;99.90
5344;DHT22;2694;48.950;8.970;2022-09-09T16:14:12;17.60;99.90
5344;DHT22;2694;48.950;8.970;2022-09-09T16:16:41;17.30;99.90
5344;DHT22;2694;48.950;8.970;2022-09-09T16:19:11;17.10;99.90
5344;DHT22;2694;48.950;8.970;2022-09-09T16:24:08;16.50;99.90
5344;DHT22;2694;48.950;8.970;2022-09-09T16:26:38;16.60;99.90
5344;DHT22;2694;48.950;8.970;2022-09-09T16:29:05;16.40;99.90
5344;DHT22;2694;48.950;8.970;2022-09-09T16:31:32;16.20;99.90
5344;DHT22;2694;48.950;8.970;2022-09-09T16:33:59;16.10;99.90
5344;DHT22;2694;48.950;8.970;2022-09-09T16:36:29;15.90;99.90
5344;DHT22;2694;48.950;8.970;2022-09-09T16:38:59;16.00;99.90
5344;DHT22;2694;48.950;8.970;2022-09-09T16:41:27;16.10;99.90
5344;DHT22;2694;48.950;8.970;2022-09-09T16:46:23;16.20;99.90
5344;DHT22;2694;48.950;8.970;2022-09-09T16:48:51;16.20;99.90
5344;DHT22;2694;48.950;8.970;2022-09-09T16:51:19;16.30;99.90
5344;DHT22;2694;48.950;8.970;2022-09-09T16:53:48;16.50;99.90
5344;DHT22;2694;48.950;8.970;2022-09-09T16:56:17;16.40;99.90
5344;DHT22;2694;48.950;8.970;2022-09-09T16:58:49;16.60;99.90
5344;DHT22;2694;48.950;8.970;2022-09-09T17:01:16;16.80;99.90
5344;DHT22;2694;48.950;8.970;2022-09-09T17:03:43;16.90;99.90
5344;DHT22;2694;48.950;8.970;2022-09-09T17:06:10;17.00;99.90
5344;DHT22;2694;48.950;8.970;2022-09-09T17:08:38;17.00;99.90
5344;DHT22;2694;48.950;8.970;2022-09-09T17:11:11;17.00;99.90
5344;DHT22;2694;48.950;8.970;2022-09-09T17:13:40;17.00;99.90
5344;DHT22;2694;48.950;8.970;2022-09-09T17:16:07;17.00;99.90
5344;DHT22;2694;48.950;8.970;2022-09-09T17:18:34;17.50;99.90
5344;DHT22;2694;48.950;8.970;2022-09-09T17:21:03;17.80;99.90
5344;DHT22;2694;48.950;8.970;2022-09-09T17:25:59;18.60;99.90
5344;DHT22;2694;48.950;8.970;2022-09-09T17:30:57;19.20;99.90
5344;DHT22;2694;48.950;8.970;2022-09-09T17:35:54;19.50;99.90
5344;DHT22;2694;48.950;8.970;2022-09-09T17:38:21;19.10;99.90
5344;DHT22;2694;48.950;8.970;2022-09-09T17:40:48;18.60;99.90
5344;DHT22;2694;48.950;8.970;2022-09-09T17:43:15;18.20;99.90
5344;DHT22;2694;48.950;8.970;2022-09-09T17:45:43;17.90;99.90
5344;DHT22;2694;48.950;8.970;2022-09-09T17:48:11;17.70;99.90
5344;DHT22;2694;48.950;8.970;2022-09-09T17:50:38;17.60;99.90
5344;DHT22;2694;48.950;8.970;2022-09-09T17:55:32;17.30;99.90
5344;DHT22;2694;48.950;8.970;2022-09-09T17:57:59;17.10;99.90
5344;DHT22;2694;48.950;8.970;2022-09-09T18:00:26;16.90;99.90
5344;DHT22;2694;48.950;8.970;2022-09-09T18:05:24;16.90;99.90
5344;DHT22;2694;48.950;8.970;2022-09-09T18:07:50;16.80;99.90
5344;DHT22;2694;48.950;8.970;2022-09-09T18:10:17;16.80;99.90
5344;DHT22;2694;48.950;8.970;2022-09-09T18:12:44;16.80;99.90
5344;DHT22;2694;48.950;8.970;2022-09-09T18:15:11;16.70;99.90
5344;DHT22;2694;48.950;8.970;2022-09-09T18:17:38;16.60;99.90
5344;DHT22;2694;48.950;8.970;2022-09-09T18:20:06;16.60;99.90
5344;DHT22;2694;48.950;8.970;2022-09-09T18:22:34;16.60;99.90
5344;DHT22;2694;48.950;8.970;2022-09-09T18:25:00;16.40;99.90
5344;DHT22;2694;48.950;8.970;2022-09-09T18:32:21;16.30;99.90
5344;DHT22;2694;48.950;8.970;2022-09-09T18:34:48;16.30;99.90
5344;DHT22;2694;48.950;8.970;2022-09-09T18:37:17;16.30;99.90
5344;DHT22;2694;48.950;8.970;2022-09-09T18:39:44;16.30;99.90
5344;DHT22;2694;48.950;8.970;2022-09-09T18:42:11;16.30;99.90
5344;DHT22;2694;48.950;8.970;2022-09-09T18:44:38;16.30;99.90
5344;DHT22;2694;48.950;8.970;2022-09-09T18:47:05;16.30;99.90
5344;DHT22;2694;48.950;8.970;2022-09-09T18:49:32;16.30;99.90
5344;DHT22;2694;48.950;8.970;2022-09-09T18:51:59;16.40;99.90
5344;DHT22;2694;48.950;8.970;2022-09-09T18:54:29;16.40;99.90
5344;DHT22;2694;48.950;8.970;2022-09-09T18:56:58;16.30;99.90
5344;DHT22;2694;48.950;8.970;2022-09-09T18:59:26;16.40;99.90
5344;DHT22;2694;48.950;8.970;2022-09-09T19:04:21;16.30;99.90
5344;DHT22;2694;48.950;8.970;2022-09-09T19:06:49;16.40;99.90
5344;DHT22;2694;48.950;8.970;2022-09-09T19:11:50;16.30;99.90
5344;DHT22;2694;48.950;8.970;2022-09-09T19:14:18;16.20;99.90
5344;DHT22;2694;48.950;8.970;2022-09-09T19:16:46;16.10;99.90
5344;DHT22;2694;48.950;8.970;2022-09-09T19:19:15;16.10;99.90
5344;DHT22;2694;48.950;8.970;2022-09-09T19:21:42;16.10;99.90
5344;DHT22;2694;48.950;8.970;2022-09-09T19:24:11;16.10;99.90
5344;DHT22;2694;48.950;8.970;2022-09-09T19:26:41;15.80;99.90
5344;DHT22;2694;48.950;8.970;2022-09-09T19:29:11;15.60;99.90
5344;DHT22;2694;48.950;8.970;2022-09-09T19:31:39;15.40;99.90
5344;DHT22;2694;48.950;8.970;2022-09-09T19:34:06;15.30;99.90
5344;DHT22;2694;48.950;8.970;2022-09-09T19:36:34;15.30;99.90
5344;DHT22;2694;48.950;8.970;2022-09-09T19:41:29;15.40;99.90
5344;DHT22;2694;48.950;8.970;2022-09-09T19:46:28;15.40;99.90
5344;DHT22;2694;48.950;8.970;2022-09-09T19:48:56;15.30;99.90
5344;DHT22;2694;48.950;8.970;2022-09-09T19:51:24;15.40;99.90
5344;DHT22;2694;48.950;8.970;2022-09-09T19:56:21;15.30;99.90
5344;DHT22;2694;48.950;8.970;2022-09-09T19:58:49;15.40;99.90
5344;DHT22;2694;48.950;8.970;2022-09-09T20:01:18;15.30;99.90
5344;DHT22;2694;48.950;8.970;2022-09-09T20:03:48;15.30;99.90
5344;DHT22;2694;48.950;8.970;2022-09-09T20:08:44;15.20;99.90
5344;DHT22;2694;48.950;8.970;2022-09-09T20:13:40;15.10;99.90
5344;DHT22;2694;48.950;8.970;2022-09-09T20:18:37;15.20;99.90